createdAt,value
2022-08-19T00:01:54.164Z,20.63
2022-08-19T00:04:01.863Z,20.61
2022-08-19T00:06:04.873Z,20.62
2022-08-19T00:08:07.831Z,20.64
2022-08-19T00:10:12.440Z,20.63
2022-08-19T00:12:16.247Z,20.62
2022-08-19T00:14:19.787Z,20.49
2022-08-19T00:16:25.100Z,20.53
2022-08-19T00:18:29.002Z,20.50
2022-08-19T00:20:31.038Z,20.42
2022-08-19T00:22:33.881Z,20.37
2022-08-19T00:24:39.568Z,20.37
2022-08-19T00:26:44.359Z,20.37
2022-08-19T00:28:46.236Z,20.40
2022-08-19T00:30:49.156Z,20.37
2022-08-19T00:32:53.647Z,20.33
2022-08-19T00:34:55.779Z,20.28
2022-08-19T00:36:58.338Z,20.25
2022-08-19T00:39:02.521Z,20.20
2022-08-19T00:41:07.112Z,20.21
2022-08-19T00:43:14.380Z,20.14
2022-08-19T00:45:21.230Z,20.10
2022-08-19T00:47:23.336Z,20.09
2022-08-19T00:49:28.325Z,20.11
2022-08-19T00:51:33.543Z,20.05
2022-08-19T00:53:36.655Z,20.09
2022-08-19T00:55:40.203Z,20.16
2022-08-19T00:57:47.668Z,20.13
2022-08-19T01:00:01.568Z,19.99
2022-08-19T01:02:04.925Z,19.96
2022-08-19T01:04:07.043Z,19.90
2022-08-19T01:06:09.075Z,19.92
2022-08-19T01:08:12.519Z,19.90
2022-08-19T01:10:19.621Z,19.88
2022-08-19T01:12:22.652Z,19.79
2022-08-19T01:14:26.086Z,19.83
2022-08-19T01:16:30.247Z,19.79
2022-08-19T01:18:40.734Z,19.76
2022-08-19T01:20:45.328Z,19.74
2022-08-19T01:23:00.253Z,19.77
2022-08-19T01:25:04.470Z,19.78
2022-08-19T01:27:12.091Z,19.70
2022-08-19T01:29:15.100Z,19.73
2022-08-19T01:31:26.872Z,19.68
2022-08-19T01:33:32.125Z,19.63
2022-08-19T01:35:36.509Z,19.69
2022-08-19T01:37:55.363Z,19.66
2022-08-19T01:39:57.766Z,19.69
2022-08-19T01:41:59.881Z,19.75
2022-08-19T01:44:17.476Z,19.78
2022-08-19T01:46:24.977Z,19.76
2022-08-19T01:48:27.886Z,19.72
2022-08-19T01:50:32.049Z,19.74
2022-08-19T01:52:40.087Z,19.79
2022-08-19T01:54:42.033Z,19.81
2022-08-19T01:56:46.238Z,19.83
2022-08-19T01:58:57.330Z,19.85
2022-08-19T02:01:00.679Z,19.86
2022-08-19T02:03:02.727Z,19.86
2022-08-19T02:05:06.207Z,19.80
2022-08-19T02:07:13.124Z,19.79
2022-08-19T02:09:15.632Z,19.76
2022-08-19T02:11:27.589Z,19.83
2022-08-19T02:13:29.982Z,19.82
2022-08-19T02:15:33.942Z,19.83
2022-08-19T02:17:36.188Z,19.83
2022-08-19T02:19:39.077Z,19.87
2022-08-19T02:21:44.786Z,19.88
2022-08-19T02:23:48.104Z,19.83
2022-08-19T02:25:50.307Z,19.85
2022-08-19T02:27:52.250Z,19.84
2022-08-19T02:29:55.267Z,19.79
2022-08-19T02:31:58.393Z,19.81
2022-08-19T02:34:02.565Z,19.83
2022-08-19T02:36:06.770Z,19.74
2022-08-19T02:38:27.167Z,19.79
2022-08-19T02:40:30.631Z,19.76
2022-08-19T02:42:33.460Z,19.71
2022-08-19T02:44:35.439Z,19.73
2022-08-19T02:46:37.774Z,19.70
2022-08-19T02:48:39.758Z,19.64
2022-08-19T02:50:51.876Z,19.68
2022-08-19T02:52:55.638Z,19.66
2022-08-19T02:54:58.660Z,19.63
2022-08-19T02:57:00.962Z,19.60
2022-08-19T02:59:04.231Z,19.68
2022-08-19T03:01:07.380Z,19.69
2022-08-19T03:03:10.597Z,19.65
2022-08-19T03:05:12.594Z,19.64
2022-08-19T03:07:16.257Z,19.63
2022-08-19T03:09:21.258Z,19.57
2022-08-19T03:11:25.380Z,19.56
2022-08-19T03:13:27.473Z,19.53
2022-08-19T03:15:31.429Z,19.54
2022-08-19T03:17:35.591Z,19.54
2022-08-19T03:19:37.574Z,19.62
2022-08-19T03:21:39.470Z,19.58
2022-08-19T03:23:41.472Z,19.60
2022-08-19T03:25:46.185Z,19.60
2022-08-19T03:27:50.140Z,19.54
2022-08-19T03:29:52.663Z,19.57
2022-08-19T03:31:55.825Z,19.55
2022-08-19T03:33:59.766Z,19.46
2022-08-19T03:36:21.919Z,19.40
2022-08-19T03:38:23.768Z,19.40
2022-08-19T03:40:26.488Z,19.42
2022-08-19T03:42:45.412Z,19.42
2022-08-19T03:44:50.467Z,19.40
2022-08-19T03:46:56.494Z,19.40
2022-08-19T03:49:01.050Z,19.42
2022-08-19T03:51:05.918Z,19.45
2022-08-19T03:53:10.055Z,19.51
2022-08-19T03:55:12.569Z,19.50
2022-08-19T03:57:15.629Z,19.63
2022-08-19T03:59:27.106Z,19.71
2022-08-19T04:01:35.204Z,19.79
2022-08-19T04:03:37.788Z,19.86
2022-08-19T04:05:40.698Z,19.91
2022-08-19T04:07:42.664Z,19.92
2022-08-19T04:09:45.655Z,19.93
2022-08-19T04:11:54.917Z,19.99
2022-08-19T04:13:57.048Z,20.05
2022-08-19T04:15:58.886Z,20.15
2022-08-19T04:18:00.889Z,20.32
2022-08-19T04:20:06.943Z,20.40
2022-08-19T04:22:09.228Z,20.49
2022-08-19T04:24:12.020Z,20.65
2022-08-19T04:26:20.627Z,20.79
2022-08-19T04:28:23.878Z,20.97
2022-08-19T04:30:25.832Z,20.97
2022-08-19T04:32:27.783Z,21.10
2022-08-19T04:34:31.869Z,21.26
2022-08-19T04:36:36.863Z,21.32
2022-08-19T04:38:38.908Z,21.33
2022-08-19T04:41:05.075Z,21.42
2022-08-19T04:43:16.736Z,21.47
2022-08-19T04:45:18.713Z,21.57
2022-08-19T04:47:47.469Z,21.73
2022-08-19T04:49:43.556Z,21.67
2022-08-19T04:51:48.909Z,21.50
2022-08-19T04:53:53.581Z,21.47
2022-08-19T04:56:04.599Z,21.36
2022-08-19T04:58:06.751Z,21.26
2022-08-19T05:00:10.906Z,21.26
2022-08-19T05:02:12.964Z,21.20
2022-08-19T05:04:16.284Z,21.22
2022-08-19T05:06:26.628Z,21.18
2022-08-19T05:08:30.956Z,21.18
2022-08-19T05:10:39.792Z,21.13
2022-08-19T05:12:41.674Z,21.17
2022-08-19T05:14:43.867Z,21.27
2022-08-19T05:16:45.876Z,21.37
2022-08-19T05:19:07.090Z,21.44
2022-08-19T05:21:29.127Z,21.72
2022-08-19T05:23:31.626Z,22.01
2022-08-19T05:25:34.561Z,22.21
2022-08-19T05:27:38.198Z,22.20
2022-08-19T05:29:40.326Z,22.08
2022-08-19T05:31:42.431Z,22.11
2022-08-19T05:33:44.632Z,22.42
2022-08-19T05:35:49.538Z,22.44
2022-08-19T05:37:54.928Z,22.67
2022-08-19T05:40:01.378Z,22.53
2022-08-19T05:42:08.313Z,22.52
2022-08-19T05:44:10.965Z,22.39
2022-08-19T05:46:27.823Z,22.41
2022-08-19T05:48:31.332Z,22.88
2022-08-19T05:50:33.444Z,23.06
2022-08-19T05:52:39.157Z,23.19
2022-08-19T05:54:50.894Z,23.87
2022-08-19T05:56:54.844Z,23.62
2022-08-19T05:58:56.914Z,23.60
2022-08-19T06:01:05.594Z,23.69
2022-08-19T06:03:11.829Z,24.14
2022-08-19T06:05:15.932Z,24.31
2022-08-19T06:07:18.883Z,24.25
2022-08-19T06:09:22.363Z,23.57
2022-08-19T06:11:26.642Z,23.57
2022-08-19T06:13:29.271Z,23.47
2022-08-19T06:15:36.144Z,23.24
2022-08-19T06:17:38.754Z,23.06
2022-08-19T06:19:42.203Z,23.20
2022-08-19T06:21:47.539Z,23.25
2022-08-19T06:23:50.004Z,23.37
2022-08-19T06:25:51.949Z,23.63
2022-08-19T06:28:14.166Z,23.35
2022-08-19T06:30:17.230Z,23.52
2022-08-19T06:32:20.289Z,23.25
2022-08-19T06:34:22.279Z,23.32
2022-08-19T06:36:35.200Z,23.26
2022-08-19T06:38:37.180Z,23.26
2022-08-19T06:40:40.170Z,23.38
2022-08-19T06:42:53.013Z,23.44
2022-08-19T06:44:56.514Z,23.96
2022-08-19T06:46:59.025Z,24.02
2022-08-19T06:49:01.460Z,24.40
2022-08-19T06:51:08.653Z,24.39
2022-08-19T06:53:10.800Z,24.49
2022-08-19T06:55:14.545Z,24.72
2022-08-19T06:57:17.221Z,24.92
2022-08-19T06:59:23.573Z,25.01
2022-08-19T07:01:28.200Z,25.23
2022-08-19T07:03:33.478Z,25.47
2022-08-19T07:05:45.275Z,25.37
2022-08-19T07:07:49.043Z,25.40
2022-08-19T07:09:59.858Z,25.64
2022-08-19T07:12:06.961Z,25.74
2022-08-19T07:14:18.899Z,25.71
2022-08-19T07:16:29.128Z,25.91
2022-08-19T07:18:31.660Z,26.14
2022-08-19T07:20:34.003Z,25.78
2022-08-19T07:22:39.314Z,25.84
2022-08-19T07:24:45.348Z,25.80
2022-08-19T07:26:56.140Z,25.90
2022-08-19T07:28:58.804Z,26.38
2022-08-19T07:31:04.714Z,26.25
2022-08-19T07:33:08.173Z,26.01
2022-08-19T07:35:11.341Z,26.11
2022-08-19T07:37:13.484Z,25.97
2022-08-19T07:39:20.318Z,26.28
2022-08-19T07:41:26.368Z,26.17
2022-08-19T07:43:35.167Z,26.21
2022-08-19T07:45:38.499Z,26.02
2022-08-19T07:47:48.841Z,26.05
2022-08-19T07:49:52.890Z,26.17
2022-08-19T07:52:02.611Z,26.06
2022-08-19T07:54:05.058Z,26.09
2022-08-19T07:56:08.328Z,26.31
2022-08-19T07:58:11.731Z,26.31
2022-08-19T08:00:14.541Z,26.40
2022-08-19T08:02:18.618Z,26.72
2022-08-19T08:04:39.648Z,26.62
2022-08-19T08:07:00.530Z,26.65
2022-08-19T08:09:16.890Z,27.25
2022-08-19T08:11:21.429Z,27.37
2022-08-19T08:13:28.269Z,27.37
2022-08-19T08:15:33.292Z,27.13
2022-08-19T08:17:49.854Z,27.21
2022-08-19T08:19:54.868Z,27.42
2022-08-19T08:21:59.009Z,27.54
2022-08-19T08:26:08.108Z,27.67
2022-08-19T08:28:11.417Z,27.52
2022-08-19T08:30:26.230Z,27.92
2022-08-19T08:32:41.075Z,27.81
2022-08-19T08:34:44.361Z,27.87
2022-08-19T08:36:49.685Z,27.91
2022-08-19T08:41:08.009Z,27.82
2022-08-19T08:43:24.581Z,28.07
2022-08-19T08:45:26.757Z,27.99
2022-08-19T08:47:36.102Z,28.26
2022-08-19T08:49:51.297Z,28.04
2022-08-19T08:52:01.828Z,27.99
2022-08-19T08:54:09.898Z,28.00
2022-08-19T08:56:14.305Z,28.70
2022-08-19T08:58:30.506Z,28.31
2022-08-19T09:00:41.938Z,28.54
2022-08-19T09:02:50.953Z,28.43
2022-08-19T09:04:55.864Z,28.46
2022-08-19T09:07:34.933Z,28.55
2022-08-19T09:09:52.142Z,28.60
2022-08-19T09:11:59.907Z,29.06
2022-08-19T09:14:40.750Z,28.80
2022-08-19T09:16:41.730Z,28.88
2022-08-19T09:18:50.101Z,29.03
2022-08-19T09:20:52.162Z,29.30
2022-08-19T09:22:54.176Z,29.14
2022-08-19T09:24:56.482Z,29.29
2022-08-19T09:26:58.604Z,29.28
2022-08-19T09:29:00.847Z,29.39
2022-08-19T09:31:03.072Z,29.15
2022-08-19T09:33:05.791Z,29.20
2022-08-19T09:35:08.734Z,29.11
2022-08-19T09:37:11.546Z,29.30
2022-08-19T09:39:17.194Z,29.17
2022-08-19T09:41:21.448Z,29.26
2022-08-19T09:43:33.671Z,29.27
2022-08-19T09:45:36.242Z,29.35
2022-08-19T09:47:40.733Z,29.16
2022-08-19T09:49:43.797Z,29.28
2022-08-19T09:51:51.245Z,29.53
2022-08-19T09:53:58.622Z,29.25
2022-08-19T09:56:00.664Z,29.23
2022-08-19T09:58:07.102Z,29.24
2022-08-19T10:00:10.698Z,29.28
2022-08-19T10:02:13.232Z,29.37
2022-08-19T10:04:23.729Z,29.46
2022-08-19T10:06:45.890Z,29.45
2022-08-19T10:08:50.751Z,29.56
2022-08-19T10:10:54.017Z,29.76
2022-08-19T10:12:56.321Z,29.82
2022-08-19T10:14:59.480Z,29.68
2022-08-19T10:17:17.532Z,29.73
2022-08-19T10:19:25.543Z,29.71
2022-08-19T10:21:35.602Z,29.69
2022-08-19T10:23:40.747Z,29.84
2022-08-19T10:25:43.959Z,29.76
2022-08-19T10:27:51.127Z,29.62
2022-08-19T10:29:53.769Z,29.68
2022-08-19T10:32:02.126Z,29.74
2022-08-19T10:34:05.630Z,29.87
2022-08-19T10:36:18.543Z,29.66
2022-08-19T10:38:29.962Z,29.45
2022-08-19T10:40:34.624Z,29.68
2022-08-19T10:42:37.877Z,29.71
2022-08-19T10:44:40.577Z,29.63
2022-08-19T10:46:48.715Z,29.63
2022-08-19T10:48:54.467Z,29.62
2022-08-19T10:51:22.885Z,29.55
2022-08-19T10:53:26.824Z,29.49
2022-08-19T10:55:48.590Z,29.49
2022-08-19T10:58:02.353Z,29.51
2022-08-19T11:00:05.782Z,29.72
2022-08-19T11:02:14.168Z,29.59
2022-08-19T11:04:18.599Z,29.61
2022-08-19T11:06:21.784Z,29.38
2022-08-19T11:08:25.570Z,29.37
2022-08-19T11:10:27.579Z,29.45
2022-08-19T11:12:29.540Z,29.65
2022-08-19T11:14:33.987Z,29.54
2022-08-19T11:16:37.518Z,29.55
2022-08-19T11:18:43.327Z,29.68
2022-08-19T11:20:45.242Z,29.61
2022-08-19T11:22:47.632Z,29.74
2022-08-19T11:24:53.594Z,29.82
2022-08-19T11:27:02.372Z,29.66
2022-08-19T11:29:07.347Z,29.91
2022-08-19T11:31:17.946Z,30.11
2022-08-19T11:33:20.344Z,29.97
2022-08-19T11:35:24.540Z,29.89
2022-08-19T11:37:28.229Z,29.82
2022-08-19T11:39:32.225Z,29.75
2022-08-19T11:41:34.832Z,29.78
2022-08-19T11:43:41.116Z,29.74
2022-08-19T11:45:43.249Z,29.76
2022-08-19T11:47:47.417Z,29.75
2022-08-19T11:49:49.406Z,29.76
2022-08-19T11:51:51.483Z,29.89
2022-08-19T11:53:56.894Z,29.83
2022-08-19T11:55:58.948Z,29.72
2022-08-19T11:58:02.594Z,29.89
2022-08-19T12:00:08.083Z,29.74
2022-08-19T12:02:16.564Z,29.81
2022-08-19T12:04:19.521Z,30.03
2022-08-19T12:06:26.832Z,30.04
2022-08-19T12:08:28.838Z,30.02
2022-08-19T12:10:30.856Z,30.00
2022-08-19T12:12:32.945Z,30.14
2022-08-19T12:14:35.660Z,30.03
2022-08-19T12:16:42.260Z,30.15
2022-08-19T12:18:55.177Z,30.15
2022-08-19T12:20:58.279Z,30.14
2022-08-19T12:23:00.276Z,30.16
2022-08-19T12:25:02.658Z,30.20
2022-08-19T12:27:04.841Z,30.19
2022-08-19T12:29:06.938Z,30.17
2022-08-19T12:31:09.786Z,30.30
2022-08-19T12:33:14.938Z,30.26
2022-08-19T12:35:17.016Z,30.22
2022-08-19T12:37:19.146Z,30.22
2022-08-19T12:39:21.108Z,30.23
2022-08-19T12:41:23.568Z,30.24
2022-08-19T12:43:31.530Z,30.61
2022-08-19T12:45:35.561Z,30.42
2022-08-19T12:47:40.824Z,30.46
2022-08-19T12:49:53.525Z,30.46
2022-08-19T12:51:59.289Z,30.46
2022-08-19T12:54:03.011Z,30.61
2022-08-19T12:56:06.230Z,30.45
2022-08-19T12:58:13.727Z,30.73
2022-08-19T13:00:22.271Z,30.71
2022-08-19T13:02:25.196Z,30.85
2022-08-19T13:04:27.506Z,30.80
2022-08-19T13:06:31.278Z,30.97
2022-08-19T13:08:39.232Z,31.03
2022-08-19T13:10:41.202Z,30.87
2022-08-19T13:12:44.650Z,30.65
2022-08-19T13:14:51.586Z,30.64
2022-08-19T13:16:53.613Z,30.91
2022-08-19T13:18:57.894Z,30.65
2022-08-19T13:21:05.561Z,30.57
2022-08-19T13:23:08.636Z,30.68
2022-08-19T13:25:11.041Z,30.61
2022-08-19T13:27:13.033Z,30.76
2022-08-19T13:29:33.761Z,30.82
2022-08-19T13:31:55.980Z,30.70
2022-08-19T13:33:57.938Z,30.70
2022-08-19T13:36:01.842Z,30.63
2022-08-19T13:38:06.392Z,30.86
2022-08-19T13:40:20.249Z,30.73
2022-08-19T13:42:22.278Z,30.53
2022-08-19T13:44:24.250Z,30.59
2022-08-19T13:46:26.188Z,30.57
2022-08-19T13:48:28.364Z,30.51
2022-08-19T13:50:35.147Z,30.47
2022-08-19T13:52:39.505Z,30.48
2022-08-19T13:54:41.605Z,30.51
2022-08-19T13:56:46.652Z,30.52
2022-08-19T13:58:49.725Z,30.54
2022-08-19T14:00:51.738Z,30.44
2022-08-19T14:02:56.215Z,30.55
2022-08-19T14:04:59.348Z,30.53
2022-08-19T14:07:02.781Z,30.54
2022-08-19T14:09:05.792Z,30.60
2022-08-19T14:11:11.079Z,30.53
2022-08-19T14:13:18.525Z,30.50
2022-08-19T14:15:20.499Z,30.58
2022-08-19T14:17:22.692Z,30.47
2022-08-19T14:19:24.617Z,30.52
2022-08-19T14:21:31.993Z,30.50
2022-08-19T14:23:35.355Z,30.49
2022-08-19T14:25:37.524Z,30.49
2022-08-19T14:27:41.971Z,30.54
2022-08-19T14:29:47.007Z,30.51
2022-08-19T14:31:49.619Z,30.50
2022-08-19T14:33:52.051Z,30.47
2022-08-19T14:35:54.106Z,30.49
2022-08-19T14:38:06.257Z,30.50
2022-08-19T14:40:09.293Z,30.42
2022-08-19T14:42:12.818Z,30.41
2022-08-19T14:44:16.063Z,30.53
2022-08-19T14:46:21.822Z,30.42
2022-08-19T14:48:24.391Z,30.37
2022-08-19T14:50:31.307Z,30.40
2022-08-19T14:52:34.560Z,30.46
2022-08-19T14:54:38.633Z,30.43
2022-08-19T14:56:41.508Z,30.39
2022-08-19T14:58:44.392Z,30.32
2022-08-19T15:00:47.374Z,30.29
2022-08-19T15:02:51.999Z,30.28
2022-08-19T15:04:58.470Z,30.33
2022-08-19T15:07:03.674Z,30.33
2022-08-19T15:09:06.466Z,30.35
2022-08-19T15:11:17.363Z,30.31
2022-08-19T15:13:19.637Z,30.31
2022-08-19T15:15:24.155Z,30.32
2022-08-19T15:17:45.954Z,30.33
2022-08-19T15:19:48.427Z,30.38
2022-08-19T15:21:50.625Z,30.25
2022-08-19T15:23:53.124Z,30.27
2022-08-19T15:25:57.136Z,30.22
2022-08-19T15:28:01.225Z,30.19
2022-08-19T15:30:04.655Z,30.20
2022-08-19T15:32:08.949Z,30.17
2022-08-19T15:34:10.960Z,30.12
2022-08-19T15:36:13.919Z,30.13
2022-08-19T15:38:22.432Z,30.11
2022-08-19T15:40:26.733Z,30.06
2022-08-19T15:42:30.504Z,30.02
2022-08-19T15:44:32.737Z,30.03
2022-08-19T15:46:38.189Z,29.98
2022-08-19T15:48:40.121Z,29.99
2022-08-19T15:50:42.803Z,29.95
2022-08-19T15:52:55.154Z,29.92
2022-08-19T15:54:57.242Z,29.90
2022-08-19T15:57:18.266Z,29.90
2022-08-19T15:59:40.840Z,29.85
2022-08-19T16:02:09.276Z,29.85
2022-08-19T16:04:32.284Z,29.76
2022-08-19T16:06:36.453Z,29.63
2022-08-19T16:08:48.791Z,29.59
2022-08-19T16:10:51.342Z,29.56
2022-08-19T16:12:53.500Z,29.43
2022-08-19T16:14:55.537Z,29.45
2022-08-19T16:16:57.776Z,29.43
2022-08-19T16:19:04.940Z,29.27
2022-08-19T16:21:08.408Z,29.21
2022-08-19T16:23:10.402Z,29.22
2022-08-19T16:25:14.875Z,29.14
2022-08-19T16:27:17.023Z,29.07
2022-08-19T16:29:34.228Z,29.05
2022-08-19T16:31:46.352Z,28.99
2022-08-19T16:33:48.641Z,28.91
2022-08-19T16:36:00.160Z,28.91
2022-08-19T16:38:10.210Z,28.79
2022-08-19T16:40:12.749Z,28.76
2022-08-19T16:42:15.614Z,28.74
2022-08-19T16:44:19.749Z,28.62
2022-08-19T16:46:26.877Z,28.65
2022-08-19T16:48:31.039Z,28.58
2022-08-19T16:50:48.631Z,28.54
2022-08-19T16:53:00.177Z,28.49
2022-08-19T16:55:02.345Z,28.49
2022-08-19T16:57:11.729Z,28.46
2022-08-19T16:59:14.231Z,28.35
2022-08-19T17:01:16.887Z,28.28
2022-08-19T17:03:35.894Z,28.21
2022-08-19T17:05:53.393Z,28.17
2022-08-19T17:07:55.361Z,28.11
2022-08-19T17:09:58.289Z,28.09
2022-08-19T17:12:00.208Z,28.01
2022-08-19T17:14:05.776Z,27.98
2022-08-19T17:16:07.859Z,27.91
2022-08-19T17:18:13.214Z,27.89
2022-08-19T17:20:15.192Z,27.83
2022-08-19T17:22:17.237Z,27.69
2022-08-19T17:24:19.157Z,27.63
2022-08-19T17:26:23.958Z,27.66
2022-08-19T17:28:31.693Z,27.57
2022-08-19T17:30:33.797Z,27.53
2022-08-19T17:32:35.883Z,27.50
2022-08-19T17:34:44.464Z,27.47
2022-08-19T17:36:46.450Z,27.41
2022-08-19T17:38:56.380Z,27.36
2022-08-19T17:41:05.110Z,27.35
2022-08-19T17:43:08.147Z,27.29
2022-08-19T17:45:11.590Z,27.24
2022-08-19T17:47:13.677Z,27.20
2022-08-19T17:49:20.102Z,27.19
2022-08-19T17:51:45.263Z,27.03
2022-08-19T17:53:47.492Z,27.00
2022-08-19T17:55:50.555Z,26.98
2022-08-19T17:57:52.858Z,26.93
2022-08-19T17:59:55.855Z,26.87
2022-08-19T18:01:59.225Z,26.82
2022-08-19T18:04:04.730Z,26.81
2022-08-19T18:06:07.005Z,26.74
2022-08-19T18:08:12.447Z,26.73
2022-08-19T18:10:14.424Z,26.66
2022-08-19T18:12:18.076Z,26.67
2022-08-19T18:14:28.116Z,26.56
2022-08-19T18:16:35.822Z,26.55
2022-08-19T18:18:43.389Z,26.49
2022-08-19T18:20:46.488Z,26.47
2022-08-19T18:22:51.047Z,26.44
2022-08-19T18:24:57.316Z,26.38
2022-08-19T18:27:03.438Z,26.29
2022-08-19T18:29:06.974Z,26.28
2022-08-19T18:31:10.003Z,26.29
2022-08-19T18:33:31.487Z,26.23
2022-08-19T18:35:36.334Z,26.19
2022-08-19T18:37:40.018Z,26.24
2022-08-19T18:40:00.555Z,26.19
2022-08-19T18:42:24.245Z,26.15
2022-08-19T18:44:45.486Z,26.15
2022-08-19T18:47:06.174Z,26.16
2022-08-19T18:49:09.829Z,26.09
2022-08-19T18:51:12.751Z,26.03
2022-08-19T18:53:14.780Z,25.97
2022-08-19T18:55:18.411Z,25.95
2022-08-19T18:57:24.507Z,25.93
2022-08-19T18:59:29.891Z,25.92
2022-08-19T19:01:36.963Z,25.89
2022-08-19T19:03:47.220Z,25.85
2022-08-19T19:05:49.362Z,25.83
2022-08-19T19:07:53.437Z,25.79
2022-08-19T19:09:55.445Z,25.67
2022-08-19T19:12:04.442Z,25.70
2022-08-19T19:14:19.261Z,25.65
2022-08-19T19:16:33.358Z,25.53
2022-08-19T19:18:35.388Z,25.54
2022-08-19T19:20:44.357Z,25.50
2022-08-19T19:22:46.470Z,25.46
2022-08-19T19:24:49.469Z,25.43
2022-08-19T19:26:53.641Z,25.41
2022-08-19T19:28:55.641Z,25.37
2022-08-19T19:30:58.840Z,25.35
2022-08-19T19:33:02.824Z,25.26
2022-08-19T19:35:06.975Z,25.21
2022-08-19T19:37:10.102Z,25.11
2022-08-19T19:39:12.755Z,25.11
2022-08-19T19:41:37.673Z,25.07
2022-08-19T19:43:41.228Z,25.04
2022-08-19T19:45:43.923Z,25.05
2022-08-19T19:47:50.538Z,24.97
2022-08-19T19:50:12.589Z,24.89
2022-08-19T19:52:22.805Z,24.91
2022-08-19T19:54:31.415Z,24.81
2022-08-19T19:56:34.547Z,24.74
2022-08-19T19:58:37.652Z,24.79
2022-08-19T20:00:40.764Z,24.73
2022-08-19T20:02:51.781Z,24.61
2022-08-19T20:04:59.036Z,24.53
2022-08-19T20:07:05.238Z,24.51
2022-08-19T20:09:15.168Z,24.44
2022-08-19T20:11:40.420Z,24.44
2022-08-19T20:13:42.503Z,24.33
2022-08-19T20:15:44.684Z,24.28
2022-08-19T20:17:48.010Z,24.19
2022-08-19T20:19:51.975Z,24.14
2022-08-19T20:22:01.705Z,24.13
2022-08-19T20:24:09.301Z,24.10
2022-08-19T20:26:22.625Z,24.05
2022-08-19T20:28:35.212Z,24.08
2022-08-19T20:30:40.453Z,24.00
2022-08-19T20:32:49.838Z,23.97
2022-08-19T20:35:06.514Z,23.93
2022-08-19T20:37:11.713Z,23.88
2022-08-19T20:39:13.871Z,23.89
2022-08-19T20:41:20.414Z,23.85
2022-08-19T20:43:24.498Z,23.82
2022-08-19T20:45:33.653Z,23.77
2022-08-19T20:47:41.549Z,23.77
2022-08-19T20:49:43.644Z,23.79
2022-08-19T20:51:47.383Z,23.78
2022-08-19T20:53:49.385Z,23.75
2022-08-19T20:55:59.710Z,23.69
2022-08-19T20:58:04.364Z,23.67
2022-08-19T21:00:13.905Z,23.64
2022-08-19T21:02:15.993Z,23.67
2022-08-19T21:04:27.008Z,23.62
2022-08-19T21:06:34.780Z,23.65
2022-08-19T21:08:38.434Z,23.67
2022-08-19T21:10:42.694Z,23.61
2022-08-19T21:12:44.742Z,23.57
2022-08-19T21:14:47.425Z,23.58
2022-08-19T21:16:51.125Z,23.55
2022-08-19T21:18:53.148Z,23.60
2022-08-19T21:20:56.022Z,23.54
2022-08-19T21:23:04.037Z,23.52
2022-08-19T21:25:07.766Z,23.56
2022-08-19T21:27:10.796Z,23.55
2022-08-19T21:29:12.869Z,23.51
2022-08-19T21:31:21.137Z,23.47
2022-08-19T21:33:26.602Z,23.43
2022-08-19T21:35:33.897Z,23.42
2022-08-19T21:37:38.960Z,23.38
2022-08-19T21:39:42.413Z,23.38
2022-08-19T21:41:44.445Z,23.38
2022-08-19T21:43:47.386Z,23.36
2022-08-19T21:45:50.820Z,23.32
2022-08-19T21:47:52.826Z,23.33
2022-08-19T21:49:56.755Z,23.34
2022-08-19T21:52:02.228Z,23.27
2022-08-19T21:54:09.225Z,23.25
2022-08-19T21:56:19.183Z,23.22
2022-08-19T21:58:28.213Z,23.22
2022-08-19T22:00:34.882Z,23.24
2022-08-19T22:02:38.199Z,23.23
2022-08-19T22:04:41.218Z,23.18
2022-08-19T22:06:44.587Z,23.20
2022-08-19T22:08:48.085Z,23.17
2022-08-19T22:10:52.152Z,23.18
2022-08-19T22:12:56.502Z,23.19
2022-08-19T22:15:00.292Z,23.12
2022-08-19T22:17:05.905Z,23.13
2022-08-19T22:19:08.228Z,23.09
2022-08-19T22:21:12.123Z,23.06
2022-08-19T22:23:20.293Z,23.06
2022-08-19T22:25:41.754Z,23.06
2022-08-19T22:27:46.488Z,23.06
2022-08-19T22:29:53.352Z,23.10
2022-08-19T22:31:58.332Z,23.07
2022-08-19T22:34:05.245Z,23.08
2022-08-19T22:36:08.425Z,23.05
2022-08-19T22:38:12.835Z,23.06
2022-08-19T22:40:16.088Z,23.06
2022-08-19T22:42:20.414Z,23.07
2022-08-19T22:44:24.615Z,23.08
2022-08-19T22:46:27.732Z,23.09
2022-08-19T22:48:31.443Z,23.12
2022-08-19T22:50:33.784Z,23.04
2022-08-19T22:52:36.734Z,23.07
2022-08-19T22:54:45.384Z,23.06
2022-08-19T22:56:47.335Z,22.98
2022-08-19T22:58:56.359Z,22.98
2022-08-19T23:00:59.233Z,22.94
2022-08-19T23:03:02.482Z,22.97
2022-08-19T23:05:09.185Z,22.82
2022-08-19T23:07:23.774Z,22.68
2022-08-19T23:09:25.907Z,22.60
2022-08-19T23:11:38.177Z,22.54
2022-08-19T23:13:45.523Z,22.54
2022-08-19T23:15:48.668Z,22.50
2022-08-19T23:17:54.591Z,22.48
2022-08-19T23:19:56.765Z,22.46
2022-08-19T23:22:02.007Z,22.49
2022-08-19T23:24:10.344Z,22.45
2022-08-19T23:26:14.290Z,22.40
2022-08-19T23:28:34.677Z,22.30
2022-08-19T23:30:42.741Z,22.26
2022-08-19T23:32:48.829Z,22.24
2022-08-19T23:34:51.007Z,22.29
2022-08-19T23:36:54.940Z,22.22
2022-08-19T23:39:02.080Z,22.28
2022-08-19T23:41:08.069Z,22.39
2022-08-19T23:43:20.388Z,22.43
2022-08-19T23:45:27.763Z,22.11
2022-08-19T23:47:30.430Z,21.70
2022-08-19T23:49:33.327Z,21.86
2022-08-19T23:51:37.207Z,22.00
2022-08-19T23:53:41.632Z,21.35
2022-08-19T23:55:45.798Z,21.62
2022-08-19T23:57:48.772Z,21.58
